SCSH weather

El Budi Airport
Teodoro Schmidt, Araucanía Region, Chile

Public forecast

Using degrees Celsius for public forecast. Weather courtesy of forecast.io.

Closest aviation weather report (METAR) to El Budi Airport

Closest report is La Araucanía Airport, 25.6 nm (47.3 km) ENE. Retrieved 2019/10/20 08:00 UTC (7 minutes ago):

SCQP 200800Z 27006KT 9999 OVC024 11/09 Q1021

Closest aviation forecast (TAF) to El Budi Airport

Closest forecast is La Araucanía Airport, 25.6 nm (47.3 km) ENE. Retrieved 2019/10/20 06:00 UTC (2 hours ago):

TAF SCQP 200403Z 2006/2106 VRB03KT 9999 BKN015 BKN030 TN06/2009Z TX16/2019Z BECMG 2012/2014 36010KT BKN040 BECMG 2016/2018 34018KT SCT030 BKN04 BECMG 2023/2101 8000 -RA SCT020 OVC035 TEMPO 2101/2104 6000 -SHRA BKN020 BKN035 BECMG 2104/2106 VRB03KT 9999 NSW SCT030